Strona główna
METAR-TAF:

METAR-TAF

Lotnisko :

Port lotniczy Montreal-Pierre Elliott Trudeau

Montreal Trudeau, Quebec, Kanada

Szerokość geograficzna: 45-28N, Długość geograficzna: 073-45W, wysokość: 31 m

Aktualna obserwacja pogody

Raport powstał 1 godzina i 4 minut temu, godzina 08:00 UTC
Wiatr 4 kt od północno-północny wschód
Temperatura 17°C
Wilgotność 77%
Ciśnienie 1020 hPa
Widzialność: 24.1 km
Mało chmury na wysokości 6800 ft

METAR: CYUL 200800Z 03004KT 15SM FEW068 17/13 A3012 RMK AC1 SLP201 DENSITY ALT 200FT

czas: 05:04 (09:04 UTC)

Prognoza

Raport powstał 26 minut temu, godzina 08:38 UTC
Prognoza ważna od 20 godzina 09 UTC do 21 godzina 06 UTC
Wiatr 3 kt z kierunków zmiennych
Widzialność: 10 km
bezchmurnie
Od 20 godzina 1600 UTC
Wiatr 5 kt od zachodnio-południowy zachód
Widzialność: 10 km
Mało chmury na wysokości 5000 ft
Stopniowe zmiany
od 20 godzina 20 UTC do 20 godzina 22 UTC
Wiatr 5 kt od południowy wschód

TAF: CYUL 200838Z 2009/2106 VRB03KT P6SM SKC FM201600 25005KT P6SM FEW050 BECMG 2020/2022 13005KT RMK NXT FCST BY 201200Z

Obserwacja i prognoza pogody dla ponad 4000 lotnisk (raport METAR i TAF).

Dostępne stacje oznaczono żółtymi i czerwonymi punktami na mapie.

Najedź kursorem aby zobaczyć nazwę stacji.

Kliknij aby zobaczyć obserwacje i prognozy pogody.

Aby zmienić mapę: kliknij na zielony przycisk z czarnym krzyżykiem, aby powiększyć; na zielony przycisk z myślnikiem, aby pomniejszyć; na zielone strzałki, aby przejść do map sąsiednich.


METAR-TAF: